Weather observations for the past three days for
Williams/Clark Memorial Airport
Metric (Imperial)
Date Time (mst) Wind (kph) Vis. (km) Weather Sky Cond. Temperature (ºC) Relative Humidity Wind Chill (°C) Heat Index (°C) Pressure Precipitation (cm)
Air Dwpt 6 hour altimeter (cm) sea level (mb) 1 hr 3 hr 6 hr
Max. Min.
10 07:55 NE 9 16.09 Fair CLR 18 -14 10% 76.86 0.0
10 07:35 SE 9 16.09 Fair CLR 18 -12 12% 76.84 0.0
10 07:15 SE 7 16.09 Fair CLR 16 -11 15% 76.84 0.0
10 06:55 SE 7 16.09 Fair CLR 14 -9 20% 76.81 0.0
10 06:35 SE 11 16.09 Fair CLR 11 -8 26% 76.78 0.0
10 06:15 SE 13 16.09 Fair CLR 9 -7 32% 7 76.78 0.0
10 05:55 S 15 16.09 Fair CLR 5 -7 42% 2 76.76 0.0
10 05:35 S 9 16.09 Fair CLR 5 -7 42% 3 76.76 0.0
10 05:15 S 9 16.09 Fair CLR 7 -7 37% 5 76.73 0.0
10 04:55 S 13 16.09 Fair CLR 7 -7 37% 5 76.73 0.0
10 04:35 SE 15 16.09 Fair CLR 6 -7 39% 3 76.71 0.0
10 04:15 SE 13 16.09 Fair CLR 6 -6 42% 4 76.71 0.0
10 03:55 S 13 16.09 Fair CLR 6 -6 42% 4 76.71 0.0
10 03:35 SE 11 16.09 Fair CLR 6 -6 42% 4 76.71 0.0
10 03:15 SE 9 16.09 Fair CLR 8 -7 34% 7 76.71 0.0
10 02:55 S 11 16.09 Fair CLR 9 -7 32% 8 76.68 0.0
10 02:35 SE 9 16.09 Fair CLR 10 -8 28% 9 76.68 0.0
10 02:15 S 9 16.09 Fair CLR 7 -6 39% 5 76.68 0.0
10 01:55 SE 7 16.09 Fair CLR 9 -7 32% 8 76.68 0.0
10 01:35 Vrbl 9 16.09 Fair CLR 9 -6 34% 8 76.68 0.0
10 01:15 S 11 16.09 Fair CLR 10 -5 35% 9 76.68 0.0
10 00:55 S 11 16.09 Fair CLR 10 -5 35% 9 76.68 0.0
10 00:35 S 11 16.09 A Few Clouds FEW120 10 -5 35% 9 76.68 0.0
10 00:15 S 13 16.09 Fair CLR 11 -5 32% 76.66 0.0
09 23:55 S 13 16.09 A Few Clouds FEW120 12 -6 28% 76.66 0.0
09 23:35 SE 11 16.09 Fair CLR 12 -6 28% 76.66 0.0
09 22:55 SW 9 16.09 Mostly Cloudy BKN120 16 -8 19% 76.63 0.0
09 22:35 Calm 16.09 Overcast OVC120 17 -8 17% 76.63 0.0
09 22:15 Calm 16.09 Overcast OVC120 17 -8 17% 76.63 0.0
09 21:55 SW 11 16.09 Overcast OVC120 18 -8 16% 76.61 0.0
09 21:35 SW 11 16.09 Overcast OVC120 19 -7 17% 76.61 0.0
09 21:15 SW 9 16.09 Mostly Cloudy BKN120 19 -8 15% 76.61 0.0
09 20:55 W 9 16.09 Partly Cloudy SCT120 20 -8 14% 76.58 0.0
09 20:35 W 15 16.09 A Few Clouds FEW120 20 -8 14% 76.56 0.0
09 20:15 W 15 16.09 A Few Clouds FEW110 21 -8 13% 76.53 0.0
09 19:55 W 13 16.09 A Few Clouds FEW110 21 -8 13% 76.5 0.0
09 19:35 W 22 16.09 A Few Clouds FEW120 22 -8 13% 76.48 0.0
09 19:15 W 17 G 31 16.09 Fair CLR 22 -8 13% 76.45 0.0
09 18:55 W 20 16.09 Fair CLR 23 -8 12% 76.45 0.0
09 18:35 W 15 G 37 16.09 Fair CLR 23 -8 12% 76.43 0.0
09 18:15 W 30 16.09 Fair CLR 24 -8 11% 24 76.43 0.0
09 17:55 W 26 G 37 16.09 A Few Clouds FEW120 24 -8 11% 24 76.4 0.0
09 17:35 W 26 16.09 Fair CLR 24 -8 11% 24 76.4 0.0
09 17:15 W 20 G 33 16.09 Fair CLR 24 -8 11% 24 76.43 0.0
09 16:55 W 26 G 44 16.09 Fair CLR 26 -8 10% 25 76.43 0.0
09 16:35 W 17 G 35 16.09 Fair CLR 25 -9 10% 24 76.43 0.0
09 16:15 S 17 G 26 16.09 Fair CLR 24 -8 11% 24 76.43 0.0
09 15:55 SW 20 G 30 16.09 Fair CLR 25 -8 11% 24 76.45 0.0
09 15:35 W 20 G 33 16.09 Fair CLR 25 -9 10% 24 76.45 0.0
09 15:15 SW 22 G 35 16.09 Fair CLR 25 -9 10% 24 76.45 0.0
09 14:55 W 17 G 26 16.09 Fair CLR 25 -10 9% 24 76.48 0.0
09 14:35 W 20 16.09 Fair CLR 25 -10 9% 24 76.5 0.0
09 14:15 W 19 16.09 Fair CLR 25 -10 9% 24 76.53 0.0
09 13:55 W 24 G 33 16.09 Fair CLR 26 -9 9% 25 76.56 0.0
09 13:35 W 24 16.09 Fair CLR 25 -9 10% 24 76.56 0.0
09 13:15 W 22 G 35 16.09 Fair CLR 26 -9 9% 25 76.56 0.0
09 12:55 W 19 G 37 16.09 Fair CLR 26 -10 8% 25 76.61 0.0
09 12:35 W 35 G 46 16.09 Fair and Breezy CLR 26 -9 9% 25 76.61 0.0
09 12:15 W 22 G 35 16.09 Fair CLR 26 -9 9% 25 76.61 0.0
09 11:55 W 20 G 37 16.09 Fair CLR 26 -8 10% 25 76.61 0.0
09 11:35 SW 17 G 35 16.09 A Few Clouds FEW120 25 -8 11% 24 76.63 0.0
09 11:15 W 13 G 28 16.09 Fair CLR 25 -9 10% 24 76.66 0.0
09 10:55 W 30 G 39 16.09 Fair CLR 25 -9 10% 24 76.66 0.0
09 10:35 SW 15 G 31 16.09 Fair CLR 24 -9 10% 24 76.66 0.0
09 10:15 NW 22 G 31 16.09 Fair CLR 24 -11 9% 24 76.66 0.0
09 09:55 W 13 G 28 16.09 Fair CLR 24 -8 11% 24 76.66 0.0
09 09:35 N 20 16.09 Fair CLR 24 -8 11% 24 76.66 0.0
09 09:15 NW 15 G 24 16.09 Fair CLR 23 -7 13% 76.66 0.0
09 08:55 NW 11 G 20 16.09 Fair CLR 22 -7 14% 76.66 0.0
09 08:35 NW 15 16.09 Fair CLR 21 -6 16% 76.66 0.0
09 08:15 NW 6 16.09 Fair CLR 21 -6 16% 76.68 0.0
09 07:55 Calm 16.09 Fair CLR 20 -5 18% 76.66 0.0
09 07:35 SE 6 16.09 Fair CLR 18 -3 24% 76.66 0.0
09 07:15 S 9 16.09 Fair CLR 16 -3 27% 76.66 0.0
09 06:55 S 9 16.09 Fair CLR 13 -4 31% 76.66 0.0
09 06:35 S 11 16.09 Fair CLR 11 -4 35% 76.63 0.0
09 06:15 S 17 16.09 Fair CLR 9 -6 34% 7 76.63 0.0
09 05:55 S 13 16.09 Fair CLR 7 -6 39% 5 76.61 0.0
09 05:35 S 11 16.09 Fair CLR 8 -7 34% 6 76.61 0.0
09 05:15 S 11 16.09 Fair CLR 8 -8 32% 6 76.58 0.0
09 04:55 SE 6 16.09 Fair CLR 7 -7 37% 76.58 0.0
09 04:35 Calm 16.09 Fair CLR 6 -8 36% 76.58 0.0
09 04:15 SE 6 16.09 Fair CLR 7 -8 34% 76.61 0.0
09 03:55 Calm 16.09 Fair CLR 10 -8 28% 76.58 0.0
09 03:35 Calm 16.09 Fair CLR 12 -8 24% 76.58 0.0
09 03:15 W 9 16.09 Fair CLR 10 -9 26% 9 76.61 0.0
09 02:55 S 7 16.09 Fair CLR 7 -8 34% 6 76.61 0.0
09 02:35 SE 11 16.09 Fair CLR 7 -8 34% 5 76.61 0.0
09 02:15 SE 15 16.09 Fair CLR 7 -9 31% 5 76.61 0.0
09 01:55 SE 13 16.09 Fair CLR 8 -8 32% 6 76.61 0.0
09 01:35 SE 13 16.09 Fair CLR 7 -8 34% 5 76.61 0.0
09 01:15 SE 15 16.09 Fair CLR 8 -8 32% 6 76.61 0.0
09 00:55 S 7 16.09 Fair CLR 8 -9 29% 7 76.61 0.0
09 00:35 S 11 16.09 Fair CLR 8 -9 29% 6 76.61 0.0
09 00:15 S 11 16.09 Fair CLR 8 -9 29% 6 76.61 0.0
08 23:55 S 13 16.09 Fair CLR 8 -9 29% 6 76.61 0.0
08 23:35 S 9 16.09 Fair CLR 8 -10 27% 7 76.61 0.0
08 23:15 Calm 16.09 Fair CLR 9 -10 25% 76.61 0.0
08 22:55 Calm 16.09 Fair CLR 8 -10 27% 76.63 0.0
08 22:35 Calm 16.09 Fair CLR 13 -11 18% 76.63 0.0
08 22:15 Calm 16.09 Fair CLR 12 -10 21% 76.63 0.0
08 21:55 W 6 16.09 Fair CLR 14 -11 17% 76.61 0.0
08 21:35 Calm 16.09 Fair CLR 14 -11 17% 76.61 0.0
08 21:15 Calm 16.09 Fair CLR 14 -11 17% 76.61 0.0
08 20:55 W 9 16.09 Fair CLR 17 -11 14% 76.58 0.0
08 20:35 W 11 16.09 Fair CLR 17 -11 14% 76.56 0.0
08 20:15 W 11 16.09 Fair CLR 17 -11 14% 76.56 0.0
08 19:55 W 13 16.09 Fair CLR 18 -11 13% 76.53 0.0
08 19:35 W 13 16.09 Fair CLR 20 -12 10% 76.5 0.0
08 19:15 NW 19 16.09 Fair CLR 21 -12 10% 76.48 0.0
08 18:55 NW 15 G 24 16.09 Fair CLR 22 -12 9% 76.48 0.0
08 18:35 W 15 G 26 16.09 Fair CLR 23 -12 9% 76.45 0.0
08 18:15 W 20 16.09 Fair CLR 24 -12 8% 24 76.45 0.0
08 17:55 NW 26 16.09 Fair CLR 24 -13 7% 24 76.45 0.0
08 17:35 W 24 G 39 16.09 Fair CLR 25 -12 8% 24 76.45 0.0
08 17:15 NW 20 G 37 16.09 Fair CLR 25 -13 7% 24 76.45 0.0
08 16:55 NW 17 G 33 16.09 Fair CLR 26 -13 7% 25 76.45 0.0
08 16:35 W 28 16.09 Fair CLR 26 -12 7% 25 76.45 0.0
08 16:15 NW 20 G 41 16.09 Fair CLR 26 -11 8% 25 76.45 0.0
08 15:55 W 24 G 35 16.09 Fair CLR 26 -11 8% 25 76.45 0.0
08 15:35 W 19 16.09 A Few Clouds FEW120 26 -9 9% 25 76.48 0.0
08 15:15 W 24 G 35 16.09 Partly Cloudy SCT120 25 -9 10% 24 76.5 0.0
08 14:55 NW 22 G 31 16.09 Partly Cloudy SCT120 24 -8 11% 24 76.5 0.0
08 14:35 W 19 G 35 16.09 Fair CLR 26 -8 10% 25 76.53 0.0
08 14:15 W 26 G 46 16.09 Partly Cloudy SCT120 27 -8 9% 26 76.53 0.0
08 13:55 Vrbl 9 G 33 16.09 Partly Cloudy SCT120 25 -8 11% 24 76.53 0.0
08 13:35 NW 28 16.09 Partly Cloudy SCT120 25 -8 11% 24 76.56 0.0
08 13:15 W 17 G 39 16.09 Fair CLR 26 -8 10% 25 76.58 0.0
08 12:55 Vrbl 6 G 28 16.09 Fair CLR 25 -8 11% 24 76.58 0.0
08 12:35 W 20 G 30 16.09 Fair CLR 24 -8 11% 24 76.61 0.0
08 12:15 W 22 G 31 16.09 Fair CLR 24 -8 11% 24 76.63 0.0
08 11:55 SW 15 G 31 16.09 Fair CLR 24 -8 11% 24 76.63 0.0
08 11:35 SW 19 G 28 16.09 Fair CLR 24 -8 11% 24 76.63 0.0
08 11:15 W 15 16.09 Fair CLR 23 -8 12% 76.66 0.0
08 10:55 NW 15 G 28 16.09 Fair CLR 23 -8 12% 76.68 0.0
08 10:35 Vrbl 11 G 28 16.09 Fair CLR 23 -8 12% 76.66 0.0
08 10:15 N 6 G 24 16.09 Fair CLR 23 -8 12% 76.68 0.0
08 09:55 NW 15 G 24 16.09 Fair CLR 22 -8 13% 76.68 0.0
08 09:35 N 19 16.09 Fair CLR 22 -8 13% 76.68 0.0
08 09:15 NW 17 16.09 Fair CLR 21 -8 13% 76.68 0.0
08 08:55 NW 11 16.09 Fair CLR 20 -8 14% 76.68 0.0
08 08:35 Vrbl 6 16.09 Fair CLR 20 -8 14% 76.68 0.0
08 08:15 N 9 16.09 Fair CLR 19 -7 17% 76.68 0.0
08 07:55 NW 6 16.09 Fair CLR 18 -8 16% 76.68 0.0
08 07:35 Calm 16.09 Fair CLR 16 -3 27% 76.68 0.0
08 07:15 Calm 16.09 Fair CLR 13 -4 31% 76.68 0.0
08 06:55 SE 6 16.09 Fair CLR 10 -5 35% 76.66 0.0
08 06:35 S 7 16.09 Fair CLR 7 -7 37% 6 76.66 0.0
08 06:15 S 11 16.09 Fair CLR 5 -8 39% 3 76.63 0.0
08 05:55 S 13 16.09 Fair CLR 3 -8 45% 0 76.63 0.0
08 05:35 S 13 16.09 Fair CLR 3 -9 41% 0 76.61 0.0
08 05:15 S 13 16.09 Fair CLR 3 -9 41% 0 76.61 0.0
08 04:55 S 15 16.09 Fair CLR 3 -9 41% -0 76.61 0.0
08 04:35 S 13 16.09 Fair CLR 4 -9 39% 1 76.61 0.0
08 04:15 S 15 16.09 Fair CLR 3 -9 41% -0 76.61 0.0
08 03:55 S 13 16.09 Fair CLR 3 -9 41% 0 76.61 0.0
08 03:35 S 13 16.09 Fair CLR 4 -10 36% 1 76.63 0.0
08 03:15 S 9 16.09 Fair CLR 5 -11 31% 3 76.61 0.0
08 02:55 S 11 16.09 Fair CLR 6 -11 29% 4 76.58 0.0
08 02:35 Calm 16.09 Fair CLR 5 -10 33% 76.58 0.0
08 02:15 S 19 16.09 Fair CLR 5 -10 33% 2 76.58 0.0
08 01:55 S 19 16.09 Fair CLR 5 -10 33% 2 76.58 0.0
08 01:35 S 19 16.09 Fair CLR 5 -10 33% 2 76.58 0.0
08 01:15 S 17 16.09 Fair CLR 5 -10 33% 2 76.61 0.0
08 00:55 S 17 16.09 Fair CLR 5 -10 33% 2 76.61 0.0
08 00:35 S 19 16.09 Fair CLR 6 -10 31% 3 76.63 0.0
08 00:15 S 19 16.09 Fair CLR 6 -10 31% 3 76.63 0.0
07 23:55 S 13 16.09 Fair CLR 6 -9 34% 4 76.63 0.0
07 23:35 S 17 16.09 Fair CLR 7 -10 29% 4 76.63 0.0
07 23:15 SE 11 16.09 Fair CLR 10 -11 22% 9 76.63 0.0
07 22:55 S 13 16.09 Fair CLR 8 -11 25% 6 76.63 0.0
07 22:35 S 13 16.09 Fair CLR 8 -10 27% 6 76.63 0.0
07 22:15 S 15 16.09 Fair CLR 9 -10 25% 7 76.63 0.0
07 21:55 S 17 16.09 Fair CLR 9 -9 27% 7 76.63 0.0
07 21:35 S 13 16.09 Fair CLR 9 -9 27% 7 76.63 0.0
07 21:15 S 13 16.09 Fair CLR 11 -10 22% 76.63 0.0
07 20:55 S 11 16.09 Fair CLR 12 -10 21% 76.61 0.0
07 20:35 S 13 16.09 Fair CLR 11 -9 24% 76.61 0.0
07 20:15 Calm 16.09 Fair CLR 13 -10 19% 76.58 0.0
07 19:55 W 6 16.09 Fair CLR 16 -11 15% 76.56 0.0
07 19:35 NW 9 16.09 Fair CLR 17 -12 13% 76.53 0.0
07 19:15 N 7 16.09 Fair CLR 18 -12 12% 76.5 0.0
07 18:55 NW 11 16.09 Fair CLR 19 -11 12% 76.5 0.0
07 18:35 N 13 16.09 Fair CLR 20 -12 10% 76.48 0.0
07 18:15 NW 15 16.09 Fair CLR 20 -12 10% 76.48 0.0
07 17:55 NW 17 G 31 16.09 Fair CLR 21 -12 10% 76.48 0.0
07 17:35 NW 17 G 30 16.09 Fair CLR 21 -12 10% 76.48 0.0
07 17:15 N 13 16.09 Fair CLR 22 -12 9% 76.45 0.0
07 16:55 NW 19 G 28 16.09 Fair CLR 22 -13 8% 76.48 0.0
07 16:35 NE 13 G 22 16.09 Fair CLR 22 -18 6% 76.48 0.0
07 16:15 N 11 G 26 16.09 Fair CLR 22 -16 7% 76.45 0.0
07 15:55 NW 15 G 30 16.09 Fair CLR 22 -14 8% 76.48 0.0
07 15:35 N 19 G 30 16.09 Fair CLR 22 -15 7% 76.5 0.0
07 15:15 Vrbl 9 G 46 16.09 Fair CLR 22 -16 7% 76.5 0.0
07 14:55 NW 15 16.09 Fair CLR 22 -15 7% 76.53 0.0
07 14:35 NW 15 G 30 16.09 Fair CLR 22 -15 7% 76.56 0.0
07 14:15 N 20 G 30 16.09 Fair CLR 22 -14 8% 76.56 0.0
07 13:15 W 15 G 33 16.09 Fair CLR 21 -14 8% 76.61 0.0
07 12:55 N 24 G 35 16.09 Fair CLR 21 -13 9% 76.63 0.0
07 12:35 Vrbl 17 G 30 16.09 Fair CLR 21 -12 10% 76.63 0.0
07 12:15 N 15 16.09 Fair CLR 20 -12 10% 76.66 0.0
07 11:55 NE 13 G 26 16.09 Fair CLR 20 -12 10% 76.68 0.0
07 11:35 N 17 G 26 16.09 Fair CLR 19 -12 11% 76.68 0.0
07 11:15 NE 13 G 31 16.09 Fair CLR 19 -12 11% 76.71 0.0
07 10:55 Vrbl 6 G 28 16.09 Fair CLR 18 -13 11% 76.73 0.0
07 10:35 Vrbl 11 G 30 16.09 Fair CLR 18 -9 15% 76.71 0.0
07 10:15 NW 19 16.09 Fair CLR 18 -8 16% 76.73 0.0
07 09:55 NW 13 G 24 16.09 Fair CLR 18 -7 18% 76.73 0.0
07 09:35 N 11 G 28 16.09 Fair CLR 17 -7 19% 76.73 0.0
07 09:15 NE 13 16.09 Fair CLR 16 -6 22% 76.76 0.0
07 08:55 Calm 16.09 Fair CLR 15 -7 21% 76.76 0.0
07 08:35 E 7 16.09 Fair CLR 15 -6 23% 76.76 0.0
07 08:15 Vrbl 9 16.09 Fair CLR 14 -6 25% 76.78 0.0
Date Time (mst) Wind (kph) Vis. (km) Weather Sky Cond. Air Dwpt Max. Min. Relative Humidity Wind Chill (°C) Heat Index (°C) altimeter (cm) sea level (mb) 1 hr 3 hr 6 hr
6 hour
Temperature (ºC) Pressure Precipitation (cm)